sensor_id;sensor_type;location;lat;lon;timestamp;P1;durP1;ratioP1;P2;durP2;ratioP2
27495;SDS011;14929;51.336;9.416;2023-02-15T00:01:30;8.10;;;6.30;;
27495;SDS011;14929;51.336;9.416;2023-02-15T00:03:59;6.45;;;5.43;;
27495;SDS011;14929;51.336;9.416;2023-02-15T00:06:27;5.10;;;4.57;;
27495;SDS011;14929;51.336;9.416;2023-02-15T00:08:55;6.75;;;5.75;;
27495;SDS011;14929;51.336;9.416;2023-02-15T00:11:23;7.28;;;6.45;;
27495;SDS011;14929;51.336;9.416;2023-02-15T00:14:19;8.27;;;6.05;;
27495;SDS011;14929;51.336;9.416;2023-02-15T00:16:48;8.60;;;7.20;;
27495;SDS011;14929;51.336;9.416;2023-02-15T00:19:18;9.63;;;7.20;;
27495;SDS011;14929;51.336;9.416;2023-02-15T00:21:47;7.85;;;7.05;;
27495;SDS011;14929;51.336;9.416;2023-02-15T00:24:15;8.43;;;6.95;;
27495;SDS011;14929;51.336;9.416;2023-02-15T00:26:44;7.85;;;7.10;;
27495;SDS011;14929;51.336;9.416;2023-02-15T00:29:13;8.93;;;8.05;;
27495;SDS011;14929;51.336;9.416;2023-02-15T00:31:43;9.88;;;7.93;;
27495;SDS011;14929;51.336;9.416;2023-02-15T00:34:12;8.27;;;6.90;;
27495;SDS011;14929;51.336;9.416;2023-02-15T00:36:41;6.68;;;5.80;;
27495;SDS011;14929;51.336;9.416;2023-02-15T00:39:09;9.10;;;7.47;;
27495;SDS011;14929;51.336;9.416;2023-02-15T00:41:37;10.60;;;7.93;;
27495;SDS011;14929;51.336;9.416;2023-02-15T00:44:05;10.35;;;7.88;;
27495;SDS011;14929;51.336;9.416;2023-02-15T00:46:34;7.93;;;6.82;;
27495;SDS011;14929;51.336;9.416;2023-02-15T00:49:03;7.80;;;6.47;;
27495;SDS011;14929;51.336;9.416;2023-02-15T00:51:31;8.15;;;6.28;;
27495;SDS011;14929;51.336;9.416;2023-02-15T00:53:59;7.10;;;6.38;;
27495;SDS011;14929;51.336;9.416;2023-02-15T00:56:26;7.15;;;6.45;;
27495;SDS011;14929;51.336;9.416;2023-02-15T00:58:54;6.45;;;5.82;;
27495;SDS011;14929;51.336;9.416;2023-02-15T01:01:21;7.88;;;7.07;;
27495;SDS011;14929;51.336;9.416;2023-02-15T01:03:50;5.22;;;4.72;;
27495;SDS011;14929;51.336;9.416;2023-02-15T01:06:19;6.97;;;5.90;;
27495;SDS011;14929;51.336;9.416;2023-02-15T01:08:47;5.20;;;4.68;;
27495;SDS011;14929;51.336;9.416;2023-02-15T01:11:15;7.47;;;6.68;;
27495;SDS011;14929;51.336;9.416;2023-02-15T01:13:47;8.55;;;7.68;;
27495;SDS011;14929;51.336;9.416;2023-02-15T01:16:15;8.13;;;6.35;;
27495;SDS011;14929;51.336;9.416;2023-02-15T01:18:43;8.10;;;7.28;;
27495;SDS011;14929;51.336;9.416;2023-02-15T01:21:11;7.10;;;6.05;;
27495;SDS011;14929;51.336;9.416;2023-02-15T01:23:41;11.02;;;8.27;;
27495;SDS011;14929;51.336;9.416;2023-02-15T01:26:09;8.18;;;7.22;;
27495;SDS011;14929;51.336;9.416;2023-02-15T01:28:37;8.88;;;6.80;;
27495;SDS011;14929;51.336;9.416;2023-02-15T01:31:05;8.98;;;7.60;;
27495;SDS011;14929;51.336;9.416;2023-02-15T01:33:34;5.78;;;5.18;;
27495;SDS011;14929;51.336;9.416;2023-02-15T01:36:02;5.65;;;5.03;;
27495;SDS011;14929;51.336;9.416;2023-02-15T01:38:30;11.10;;;8.13;;
27495;SDS011;14929;51.336;9.416;2023-02-15T01:40:59;6.13;;;5.53;;
27495;SDS011;14929;51.336;9.416;2023-02-15T01:43:41;6.45;;;5.82;;
27495;SDS011;14929;51.336;9.416;2023-02-15T01:46:11;5.15;;;4.65;;
27495;SDS011;14929;51.336;9.416;2023-02-15T01:48:42;6.13;;;5.53;;
27495;SDS011;14929;51.336;9.416;2023-02-15T01:51:12;7.10;;;6.03;;
27495;SDS011;14929;51.336;9.416;2023-02-15T01:53:41;6.78;;;6.07;;
27495;SDS011;14929;51.336;9.416;2023-02-15T01:56:13;6.68;;;5.90;;
27495;SDS011;14929;51.336;9.416;2023-02-15T01:58:43;8.63;;;6.65;;
27495;SDS011;14929;51.336;9.416;2023-02-15T02:01:12;6.00;;;5.13;;
27495;SDS011;14929;51.336;9.416;2023-02-15T02:03:42;5.28;;;4.78;;
27495;SDS011;14929;51.336;9.416;2023-02-15T02:06:15;5.18;;;4.22;;
27495;SDS011;14929;51.336;9.416;2023-02-15T02:08:43;5.85;;;5.25;;
27495;SDS011;14929;51.336;9.416;2023-02-15T02:11:13;6.30;;;5.70;;
27495;SDS011;14929;51.336;9.416;2023-02-15T02:13:41;7.65;;;6.85;;
27495;SDS011;14929;51.336;9.416;2023-02-15T02:16:11;7.00;;;6.30;;
27495;SDS011;14929;51.336;9.416;2023-02-15T02:18:46;6.43;;;5.82;;
27495;SDS011;14929;51.336;9.416;2023-02-15T02:28:44;8.18;;;7.38;;
27495;SDS011;14929;51.336;9.416;2023-02-15T02:31:36;5.82;;;5.25;;
27495;SDS011;14929;51.336;9.416;2023-02-15T02:34:18;8.98;;;6.78;;
27495;SDS011;14929;51.336;9.416;2023-02-15T02:36:52;5.78;;;5.22;;
27495;SDS011;14929;51.336;9.416;2023-02-15T02:39:28;6.28;;;5.68;;
27495;SDS011;14929;51.336;9.416;2023-02-15T02:42:01;5.40;;;4.38;;
27495;SDS011;14929;51.336;9.416;2023-02-15T02:44:34;4.90;;;4.43;;
27495;SDS011;14929;51.336;9.416;2023-02-15T02:47:09;6.47;;;5.75;;
27495;SDS011;14929;51.336;9.416;2023-02-15T02:49:42;6.22;;;5.63;;
27495;SDS011;14929;51.336;9.416;2023-02-15T02:55:07;7.55;;;6.43;;
27495;SDS011;14929;51.336;9.416;2023-02-15T02:57:40;9.55;;;7.38;;
27495;SDS011;14929;51.336;9.416;2023-02-15T03:00:14;7.40;;;6.63;;
27495;SDS011;14929;51.336;9.416;2023-02-15T03:02:43;6.10;;;5.50;;
27495;SDS011;14929;51.336;9.416;2023-02-15T03:05:14;7.60;;;6.35;;
27495;SDS011;14929;51.336;9.416;2023-02-15T03:07:45;7.22;;;6.18;;
27495;SDS011;14929;51.336;9.416;2023-02-15T03:10:16;7.25;;;6.40;;
27495;SDS011;14929;51.336;9.416;2023-02-15T03:12:46;10.25;;;7.32;;
27495;SDS011;14929;51.336;9.416;2023-02-15T03:15:15;6.85;;;5.97;;
27495;SDS011;14929;51.336;9.416;2023-02-15T03:17:45;5.78;;;5.13;;
27495;SDS011;14929;51.336;9.416;2023-02-15T03:20:18;7.53;;;6.15;;
27495;SDS011;14929;51.336;9.416;2023-02-15T03:22:50;7.50;;;6.70;;
27495;SDS011;14929;51.336;9.416;2023-02-15T03:25:21;7.10;;;6.25;;
27495;SDS011;14929;51.336;9.416;2023-02-15T03:27:51;9.20;;;6.13;;
27495;SDS011;14929;51.336;9.416;2023-02-15T03:30:25;7.38;;;5.72;;
27495;SDS011;14929;51.336;9.416;2023-02-15T03:32:53;5.65;;;5.05;;
27495;SDS011;14929;51.336;9.416;2023-02-15T03:35:23;7.32;;;6.63;;
27495;SDS011;14929;51.336;9.416;2023-02-15T03:37:53;6.65;;;5.95;;
27495;SDS011;14929;51.336;9.416;2023-02-15T03:40:25;6.38;;;5.78;;
27495;SDS011;14929;51.336;9.416;2023-02-15T03:43:14;5.78;;;5.05;;
27495;SDS011;14929;51.336;9.416;2023-02-15T03:45:46;5.78;;;4.50;;
27495;SDS011;14929;51.336;9.416;2023-02-15T03:48:21;4.13;;;3.72;;
27495;SDS011;14929;51.336;9.416;2023-02-15T03:50:56;5.30;;;4.60;;
27495;SDS011;14929;51.336;9.416;2023-02-15T03:53:43;5.10;;;4.60;;
27495;SDS011;14929;51.336;9.416;2023-02-15T03:56:13;5.07;;;4.65;;
27495;SDS011;14929;51.336;9.416;2023-02-15T03:58:40;7.18;;;5.82;;
27495;SDS011;14929;51.336;9.416;2023-02-15T04:01:26;5.88;;;5.00;;
27495;SDS011;14929;51.336;9.416;2023-02-15T04:04:16;4.35;;;3.95;;
27495;SDS011;14929;51.336;9.416;2023-02-15T04:06:47;6.32;;;5.47;;
27495;SDS011;14929;51.336;9.416;2023-02-15T04:09:14;5.18;;;4.38;;
27495;SDS011;14929;51.336;9.416;2023-02-15T04:11:59;6.20;;;5.60;;
27495;SDS011;14929;51.336;9.416;2023-02-15T04:14:27;5.35;;;4.82;;
27495;SDS011;14929;51.336;9.416;2023-02-15T04:17:12;4.18;;;3.75;;
27495;SDS011;14929;51.336;9.416;2023-02-15T04:19:39;4.85;;;4.43;;
27495;SDS011;14929;51.336;9.416;2023-02-15T04:22:28;5.78;;;5.18;;
27495;SDS011;14929;51.336;9.416;2023-02-15T04:25:13;5.95;;;5.35;;
27495;SDS011;14929;51.336;9.416;2023-02-15T04:27:41;5.85;;;4.57;;
27495;SDS011;14929;51.336;9.416;2023-02-15T04:30:11;4.50;;;4.07;;
27495;SDS011;14929;51.336;9.416;2023-02-15T04:32:40;5.35;;;4.72;;
27495;SDS011;14929;51.336;9.416;2023-02-15T04:35:08;5.43;;;4.90;;
27495;SDS011;14929;51.336;9.416;2023-02-15T04:37:37;4.88;;;4.38;;
27495;SDS011;14929;51.336;9.416;2023-02-15T04:40:25;4.38;;;3.88;;
27495;SDS011;14929;51.336;9.416;2023-02-15T04:42:52;4.00;;;3.60;;
27495;SDS011;14929;51.336;9.416;2023-02-15T04:45:20;4.28;;;3.88;;
27495;SDS011;14929;51.336;9.416;2023-02-15T04:47:47;5.63;;;5.13;;
27495;SDS011;14929;51.336;9.416;2023-02-15T04:50:15;4.47;;;4.03;;
27495;SDS011;14929;51.336;9.416;2023-02-15T04:52:44;4.43;;;3.70;;
27495;SDS011;14929;51.336;9.416;2023-02-15T04:55:12;3.63;;;3.33;;
27495;SDS011;14929;51.336;9.416;2023-02-15T04:57:40;3.60;;;3.30;;
27495;SDS011;14929;51.336;9.416;2023-02-15T05:00:08;4.88;;;4.47;;
27495;SDS011;14929;51.336;9.416;2023-02-15T05:02:36;3.90;;;3.42;;
27495;SDS011;14929;51.336;9.416;2023-02-15T05:05:04;3.30;;;3.00;;
27495;SDS011;14929;51.336;9.416;2023-02-15T05:07:34;4.22;;;3.83;;
27495;SDS011;14929;51.336;9.416;2023-02-15T05:10:03;4.20;;;3.90;;
27495;SDS011;14929;51.336;9.416;2023-02-15T05:12:32;3.53;;;3.22;;
27495;SDS011;14929;51.336;9.416;2023-02-15T05:15:00;4.30;;;3.90;;
27495;SDS011;14929;51.336;9.416;2023-02-15T05:17:29;4.00;;;3.63;;
27495;SDS011;14929;51.336;9.416;2023-02-15T05:19:57;4.47;;;4.07;;
27495;SDS011;14929;51.336;9.416;2023-02-15T05:22:25;6.53;;;5.53;;
27495;SDS011;14929;51.336;9.416;2023-02-15T05:24:53;5.18;;;4.68;;
27495;SDS011;14929;51.336;9.416;2023-02-15T05:27:39;4.63;;;4.05;;
27495;SDS011;14929;51.336;9.416;2023-02-15T05:30:32;6.38;;;5.43;;
27495;SDS011;14929;51.336;9.416;2023-02-15T05:33:00;5.60;;;4.93;;
27495;SDS011;14929;51.336;9.416;2023-02-15T05:35:28;4.55;;;4.13;;
27495;SDS011;14929;51.336;9.416;2023-02-15T05:37:56;4.22;;;3.92;;
27495;SDS011;14929;51.336;9.416;2023-02-15T05:40:23;6.97;;;6.15;;
27495;SDS011;14929;51.336;9.416;2023-02-15T05:42:53;5.07;;;4.57;;
27495;SDS011;14929;51.336;9.416;2023-02-15T05:45:20;6.25;;;5.10;;
27495;SDS011;14929;51.336;9.416;2023-02-15T05:47:48;6.75;;;6.05;;
27495;SDS011;14929;51.336;9.416;2023-02-15T05:50:15;6.30;;;5.30;;
27495;SDS011;14929;51.336;9.416;2023-02-15T05:52:43;6.35;;;5.10;;
27495;SDS011;14929;51.336;9.416;2023-02-15T05:55:11;6.22;;;5.63;;
27495;SDS011;14929;51.336;9.416;2023-02-15T05:57:38;4.28;;;3.45;;
27495;SDS011;14929;51.336;9.416;2023-02-15T06:00:08;6.55;;;4.78;;
27495;SDS011;14929;51.336;9.416;2023-02-15T06:02:37;5.57;;;4.97;;
27495;SDS011;14929;51.336;9.416;2023-02-15T06:05:05;4.75;;;4.28;;
27495;SDS011;14929;51.336;9.416;2023-02-15T06:07:34;6.15;;;4.10;;
27495;SDS011;14929;51.336;9.416;2023-02-15T06:10:02;6.15;;;4.68;;
27495;SDS011;14929;51.336;9.416;2023-02-15T06:12:30;5.03;;;4.50;;
27495;SDS011;14929;51.336;9.416;2023-02-15T06:14:58;5.15;;;4.13;;
27495;SDS011;14929;51.336;9.416;2023-02-15T06:17:26;5.00;;;4.13;;
27495;SDS011;14929;51.336;9.416;2023-02-15T06:19:54;5.88;;;4.63;;
27495;SDS011;14929;51.336;9.416;2023-02-15T06:22:21;6.45;;;5.32;;
27495;SDS011;14929;51.336;9.416;2023-02-15T06:24:49;6.68;;;4.85;;
27495;SDS011;14929;51.336;9.416;2023-02-15T06:27:16;5.32;;;3.72;;
27495;SDS011;14929;51.336;9.416;2023-02-15T06:29:44;6.90;;;5.32;;
27495;SDS011;14929;51.336;9.416;2023-02-15T06:32:12;6.68;;;6.07;;
27495;SDS011;14929;51.336;9.416;2023-02-15T06:34:41;8.00;;;5.70;;
27495;SDS011;14929;51.336;9.416;2023-02-15T06:37:08;6.32;;;5.63;;
27495;SDS011;14929;51.336;9.416;2023-02-15T06:39:36;7.10;;;5.53;;
27495;SDS011;14929;51.336;9.416;2023-02-15T06:42:04;5.70;;;5.00;;
27495;SDS011;14929;51.336;9.416;2023-02-15T06:44:32;6.35;;;4.65;;
27495;SDS011;14929;51.336;9.416;2023-02-15T06:46:59;6.30;;;5.70;;
27495;SDS011;14929;51.336;9.416;2023-02-15T06:49:27;7.43;;;6.30;;
27495;SDS011;14929;51.336;9.416;2023-02-15T06:51:56;6.15;;;5.50;;
27495;SDS011;14929;51.336;9.416;2023-02-15T06:54:29;8.63;;;6.22;;
27495;SDS011;14929;51.336;9.416;2023-02-15T06:56:57;7.63;;;5.47;;
27495;SDS011;14929;51.336;9.416;2023-02-15T06:59:24;8.40;;;6.20;;
27495;SDS011;14929;51.336;9.416;2023-02-15T07:01:52;6.75;;;5.78;;
27495;SDS011;14929;51.336;9.416;2023-02-15T07:04:19;7.15;;;5.43;;
27495;SDS011;14929;51.336;9.416;2023-02-15T07:06:47;8.63;;;6.65;;
27495;SDS011;14929;51.336;9.416;2023-02-15T07:09:15;7.32;;;5.72;;
27495;SDS011;14929;51.336;9.416;2023-02-15T07:11:43;6.10;;;5.35;;
27495;SDS011;14929;51.336;9.416;2023-02-15T07:14:28;6.93;;;6.18;;
27495;SDS011;14929;51.336;9.416;2023-02-15T07:16:55;9.27;;;6.43;;
27495;SDS011;14929;51.336;9.416;2023-02-15T07:19:22;6.45;;;5.22;;
27495;SDS011;14929;51.336;9.416;2023-02-15T07:21:50;5.70;;;4.35;;
27495;SDS011;14929;51.336;9.416;2023-02-15T07:24:19;6.10;;;4.85;;
27495;SDS011;14929;51.336;9.416;2023-02-15T07:26:46;6.93;;;5.28;;
27495;SDS011;14929;51.336;9.416;2023-02-15T07:29:14;7.32;;;5.63;;
27495;SDS011;14929;51.336;9.416;2023-02-15T07:31:41;8.15;;;6.10;;
27495;SDS011;14929;51.336;9.416;2023-02-15T07:34:10;5.47;;;4.32;;
27495;SDS011;14929;51.336;9.416;2023-02-15T07:36:38;7.03;;;5.85;;
27495;SDS011;14929;51.336;9.416;2023-02-15T07:39:05;5.10;;;4.25;;
27495;SDS011;14929;51.336;9.416;2023-02-15T07:41:34;5.10;;;4.30;;
27495;SDS011;14929;51.336;9.416;2023-02-15T07:44:02;6.75;;;5.68;;
27495;SDS011;14929;51.336;9.416;2023-02-15T07:46:29;6.07;;;4.88;;
27495;SDS011;14929;51.336;9.416;2023-02-15T07:48:57;4.90;;;4.32;;
27495;SDS011;14929;51.336;9.416;2023-02-15T07:51:24;5.57;;;4.95;;
27495;SDS011;14929;51.336;9.416;2023-02-15T07:53:52;7.28;;;5.85;;
27495;SDS011;14929;51.336;9.416;2023-02-15T07:56:20;7.28;;;6.45;;
27495;SDS011;14929;51.336;9.416;2023-02-15T07:58:49;7.82;;;6.38;;
27495;SDS011;14929;51.336;9.416;2023-02-15T08:01:17;5.75;;;5.05;;
27495;SDS011;14929;51.336;9.416;2023-02-15T08:06:51;5.75;;;4.90;;
27495;SDS011;14929;51.336;9.416;2023-02-15T08:09:20;5.85;;;4.55;;
27495;SDS011;14929;51.336;9.416;2023-02-15T08:11:48;4.68;;;4.28;;
27495;SDS011;14929;51.336;9.416;2023-02-15T08:14:24;5.18;;;4.60;;
27495;SDS011;14929;51.336;9.416;2023-02-15T08:17:00;6.68;;;5.05;;
27495;SDS011;14929;51.336;9.416;2023-02-15T08:19:31;4.70;;;4.30;;
27495;SDS011;14929;51.336;9.416;2023-02-15T08:22:11;5.82;;;5.13;;
27495;SDS011;14929;51.336;9.416;2023-02-15T08:24:40;8.35;;;5.32;;
27495;SDS011;14929;51.336;9.416;2023-02-15T08:27:09;5.40;;;4.90;;
27495;SDS011;14929;51.336;9.416;2023-02-15T08:29:38;4.43;;;3.97;;
27495;SDS011;14929;51.336;9.416;2023-02-15T08:32:07;5.57;;;4.55;;
27495;SDS011;14929;51.336;9.416;2023-02-15T08:34:37;6.50;;;5.07;;
27495;SDS011;14929;51.336;9.416;2023-02-15T08:37:07;5.90;;;5.25;;
27495;SDS011;14929;51.336;9.416;2023-02-15T08:39:35;5.35;;;4.45;;
27495;SDS011;14929;51.336;9.416;2023-02-15T08:42:03;6.03;;;5.43;;
27495;SDS011;14929;51.336;9.416;2023-02-15T08:44:31;6.22;;;5.50;;
27495;SDS011;14929;51.336;9.416;2023-02-15T08:47:00;5.90;;;5.30;;
27495;SDS011;14929;51.336;9.416;2023-02-15T08:49:28;5.40;;;4.90;;
27495;SDS011;14929;51.336;9.416;2023-02-15T08:51:56;7.82;;;5.53;;
27495;SDS011;14929;51.336;9.416;2023-02-15T08:54:24;7.43;;;5.30;;
27495;SDS011;14929;51.336;9.416;2023-02-15T08:56:52;8.90;;;6.97;;
27495;SDS011;14929;51.336;9.416;2023-02-15T08:59:20;11.10;;;7.68;;
27495;SDS011;14929;51.336;9.416;2023-02-15T09:01:49;8.82;;;6.00;;
27495;SDS011;14929;51.336;9.416;2023-02-15T09:04:20;7.72;;;6.28;;
27495;SDS011;14929;51.336;9.416;2023-02-15T09:06:49;9.02;;;6.72;;
27495;SDS011;14929;51.336;9.416;2023-02-15T09:09:17;8.30;;;6.57;;
27495;SDS011;14929;51.336;9.416;2023-02-15T09:11:46;6.45;;;4.95;;
27495;SDS011;14929;51.336;9.416;2023-02-15T09:14:15;6.15;;;5.50;;
27495;SDS011;14929;51.336;9.416;2023-02-15T09:16:46;8.45;;;6.20;;
27495;SDS011;14929;51.336;9.416;2023-02-15T09:19:16;8.82;;;7.22;;
27495;SDS011;14929;51.336;9.416;2023-02-15T09:21:48;9.30;;;7.43;;
27495;SDS011;14929;51.336;9.416;2023-02-15T09:24:16;7.97;;;6.70;;
27495;SDS011;14929;51.336;9.416;2023-02-15T09:26:45;16.48;;;7.30;;
27495;SDS011;14929;51.336;9.416;2023-02-15T09:29:14;9.63;;;6.78;;
27495;SDS011;14929;51.336;9.416;2023-02-15T09:31:44;8.10;;;6.63;;
27495;SDS011;14929;51.336;9.416;2023-02-15T09:34:14;8.35;;;6.28;;
27495;SDS011;14929;51.336;9.416;2023-02-15T09:36:44;8.50;;;6.47;;
27495;SDS011;14929;51.336;9.416;2023-02-15T09:39:14;8.23;;;6.57;;
27495;SDS011;14929;51.336;9.416;2023-02-15T09:45:03;8.38;;;6.20;;
27495;SDS011;14929;51.336;9.416;2023-02-15T09:47:58;8.07;;;6.55;;
27495;SDS011;14929;51.336;9.416;2023-02-15T09:50:38;12.50;;;8.40;;
27495;SDS011;14929;51.336;9.416;2023-02-15T09:53:24;9.75;;;7.20;;
27495;SDS011;14929;51.336;9.416;2023-02-15T09:56:05;9.63;;;7.28;;
27495;SDS011;14929;51.336;9.416;2023-02-15T09:58:39;6.90;;;5.95;;
27495;SDS011;14929;51.336;9.416;2023-02-15T10:01:15;11.18;;;7.68;;
27495;SDS011;14929;51.336;9.416;2023-02-15T10:03:51;8.02;;;6.28;;
27495;SDS011;14929;51.336;9.416;2023-02-15T10:06:42;8.00;;;6.50;;
27495;SDS011;14929;51.336;9.416;2023-02-15T10:09:19;8.52;;;6.68;;
27495;SDS011;14929;51.336;9.416;2023-02-15T10:12:20;11.50;;;7.75;;
27495;SDS011;14929;51.336;9.416;2023-02-15T10:15:22;7.88;;;6.35;;
27495;SDS011;14929;51.336;9.416;2023-02-15T10:18:11;8.95;;;5.88;;
27495;SDS011;14929;51.336;9.416;2023-02-15T10:21:00;10.20;;;7.65;;
27495;SDS011;14929;51.336;9.416;2023-02-15T10:23:38;7.55;;;5.78;;
27495;SDS011;14929;51.336;9.416;2023-02-15T10:26:19;7.82;;;6.43;;
27495;SDS011;14929;51.336;9.416;2023-02-15T10:28:49;9.18;;;6.30;;
27495;SDS011;14929;51.336;9.416;2023-02-15T10:31:22;8.63;;;6.93;;
27495;SDS011;14929;51.336;9.416;2023-02-15T10:34:03;7.32;;;6.25;;
27495;SDS011;14929;51.336;9.416;2023-02-15T10:36:49;9.05;;;7.68;;
27495;SDS011;14929;51.336;9.416;2023-02-15T10:39:46;9.98;;;6.35;;
27495;SDS011;14929;51.336;9.416;2023-02-15T10:42:26;10.23;;;7.32;;
27495;SDS011;14929;51.336;9.416;2023-02-15T10:45:10;8.95;;;7.40;;
27495;SDS011;14929;51.336;9.416;2023-02-15T10:47:50;10.23;;;7.78;;
27495;SDS011;14929;51.336;9.416;2023-02-15T10:50:47;9.13;;;6.53;;
27495;SDS011;14929;51.336;9.416;2023-02-15T10:53:24;9.13;;;8.07;;
27495;SDS011;14929;51.336;9.416;2023-02-15T10:56:16;12.05;;;8.30;;
27495;SDS011;14929;51.336;9.416;2023-02-15T10:58:54;9.20;;;6.70;;
27495;SDS011;14929;51.336;9.416;2023-02-15T11:01:46;8.85;;;6.47;;
27495;SDS011;14929;51.336;9.416;2023-02-15T11:07:20;6.78;;;5.68;;
27495;SDS011;14929;51.336;9.416;2023-02-15T11:11:01;8.50;;;6.30;;
27495;SDS011;14929;51.336;9.416;2023-02-15T11:13:20;9.23;;;7.03;;
27495;SDS011;14929;51.336;9.416;2023-02-15T11:15:55;8.73;;;7.18;;
27495;SDS011;14929;51.336;9.416;2023-02-15T11:18:27;10.65;;;7.47;;
27495;SDS011;14929;51.336;9.416;2023-02-15T11:21:04;7.60;;;6.63;;
27495;SDS011;14929;51.336;9.416;2023-02-15T11:23:40;9.93;;;8.15;;
27495;SDS011;14929;51.336;9.416;2023-02-15T11:26:14;9.60;;;7.40;;
27495;SDS011;14929;51.336;9.416;2023-02-15T11:28:51;8.73;;;7.07;;
27495;SDS011;14929;51.336;9.416;2023-02-15T11:31:22;9.70;;;7.85;;
27495;SDS011;14929;51.336;9.416;2023-02-15T11:33:58;9.48;;;8.40;;
27495;SDS011;14929;51.336;9.416;2023-02-15T11:36:28;8.93;;;7.72;;
27495;SDS011;14929;51.336;9.416;2023-02-15T11:39:01;8.60;;;7.25;;
27495;SDS011;14929;51.336;9.416;2023-02-15T11:41:31;9.60;;;7.30;;
27495;SDS011;14929;51.336;9.416;2023-02-15T11:44:04;6.97;;;6.28;;
27495;SDS011;14929;51.336;9.416;2023-02-15T11:46:38;8.50;;;7.60;;
27495;SDS011;14929;51.336;9.416;2023-02-15T11:49:08;9.65;;;7.18;;
27495;SDS011;14929;51.336;9.416;2023-02-15T11:51:48;8.45;;;7.13;;
27495;SDS011;14929;51.336;9.416;2023-02-15T11:54:16;8.45;;;7.45;;
27495;SDS011;14929;51.336;9.416;2023-02-15T11:56:45;9.82;;;8.13;;
27495;SDS011;14929;51.336;9.416;2023-02-15T11:59:14;11.55;;;7.82;;
27495;SDS011;14929;51.336;9.416;2023-02-15T12:01:52;9.57;;;8.15;;
27495;SDS011;14929;51.336;9.416;2023-02-15T12:04:20;7.07;;;6.18;;
27495;SDS011;14929;51.336;9.416;2023-02-15T12:06:51;11.65;;;8.73;;
27495;SDS011;14929;51.336;9.416;2023-02-15T12:09:25;9.73;;;8.13;;
27495;SDS011;14929;51.336;9.416;2023-02-15T12:14:51;9.55;;;7.97;;
27495;SDS011;14929;51.336;9.416;2023-02-15T12:17:22;10.15;;;8.68;;
27495;SDS011;14929;51.336;9.416;2023-02-15T12:19:51;10.20;;;7.85;;
27495;SDS011;14929;51.336;9.416;2023-02-15T12:22:27;8.45;;;7.55;;
27495;SDS011;14929;51.336;9.416;2023-02-15T12:24:57;9.52;;;7.80;;
27495;SDS011;14929;51.336;9.416;2023-02-15T12:27:48;7.80;;;6.25;;
27495;SDS011;14929;51.336;9.416;2023-02-15T12:30:23;8.93;;;7.97;;
27495;SDS011;14929;51.336;9.416;2023-02-15T12:32:58;10.35;;;7.57;;
27495;SDS011;14929;51.336;9.416;2023-02-15T12:35:37;8.82;;;7.15;;
27495;SDS011;14929;51.336;9.416;2023-02-15T12:38:20;9.77;;;8.40;;
27495;SDS011;14929;51.336;9.416;2023-02-15T12:40:56;9.10;;;8.20;;
27495;SDS011;14929;51.336;9.416;2023-02-15T12:43:26;8.90;;;7.65;;
27495;SDS011;14929;51.336;9.416;2023-02-15T12:46:06;9.43;;;8.15;;
27495;SDS011;14929;51.336;9.416;2023-02-15T12:48:57;10.80;;;7.80;;
27495;SDS011;14929;51.336;9.416;2023-02-15T12:51:42;8.70;;;6.70;;
27495;SDS011;14929;51.336;9.416;2023-02-15T12:54:26;9.95;;;7.70;;
27495;SDS011;14929;51.336;9.416;2023-02-15T12:59:50;7.05;;;5.97;;
27495;SDS011;14929;51.336;9.416;2023-02-15T13:02:22;10.52;;;8.25;;
27495;SDS011;14929;51.336;9.416;2023-02-15T13:04:55;7.85;;;6.88;;
27495;SDS011;14929;51.336;9.416;2023-02-15T13:07:25;11.52;;;8.40;;
27495;SDS011;14929;51.336;9.416;2023-02-15T13:09:57;11.77;;;8.25;;
27495;SDS011;14929;51.336;9.416;2023-02-15T13:12:26;11.55;;;8.52;;
27495;SDS011;14929;51.336;9.416;2023-02-15T13:14:57;8.98;;;7.25;;
27495;SDS011;14929;51.336;9.416;2023-02-15T13:17:28;10.23;;;8.00;;
27495;SDS011;14929;51.336;9.416;2023-02-15T13:20:03;8.77;;;7.30;;
27495;SDS011;14929;51.336;9.416;2023-02-15T13:22:37;12.13;;;9.20;;
27495;SDS011;14929;51.336;9.416;2023-02-15T13:25:10;10.52;;;8.85;;
27495;SDS011;14929;51.336;9.416;2023-02-15T13:27:41;9.32;;;7.70;;
27495;SDS011;14929;51.336;9.416;2023-02-15T13:30:23;12.65;;;9.52;;
27495;SDS011;14929;51.336;9.416;2023-02-15T13:32:54;13.23;;;9.40;;
27495;SDS011;14929;51.336;9.416;2023-02-15T13:35:25;12.05;;;8.88;;
27495;SDS011;14929;51.336;9.416;2023-02-15T13:38:02;12.90;;;9.05;;
27495;SDS011;14929;51.336;9.416;2023-02-15T13:40:41;12.00;;;9.68;;
27495;SDS011;14929;51.336;9.416;2023-02-15T13:43:18;13.32;;;10.43;;
27495;SDS011;14929;51.336;9.416;2023-02-15T13:46:02;15.57;;;11.13;;
27495;SDS011;14929;51.336;9.416;2023-02-15T13:48:41;11.60;;;9.00;;
27495;SDS011;14929;51.336;9.416;2023-02-15T13:51:16;16.63;;;10.65;;
27495;SDS011;14929;51.336;9.416;2023-02-15T13:54:00;13.27;;;9.63;;
27495;SDS011;14929;51.336;9.416;2023-02-15T13:56:58;12.93;;;9.98;;
27495;SDS011;14929;51.336;9.416;2023-02-15T13:59:47;14.43;;;10.18;;
27495;SDS011;14929;51.336;9.416;2023-02-15T14:02:37;11.77;;;9.07;;
27495;SDS011;14929;51.336;9.416;2023-02-15T14:05:27;10.80;;;8.35;;
27495;SDS011;14929;51.336;9.416;2023-02-15T14:08:11;14.27;;;9.73;;
27495;SDS011;14929;51.336;9.416;2023-02-15T14:10:47;14.32;;;9.13;;
27495;SDS011;14929;51.336;9.416;2023-02-15T14:16:36;11.15;;;8.75;;
27495;SDS011;14929;51.336;9.416;2023-02-15T14:19:14;12.75;;;9.35;;
27495;SDS011;14929;51.336;9.416;2023-02-15T14:21:47;13.30;;;9.10;;
27495;SDS011;14929;51.336;9.416;2023-02-15T14:24:21;13.10;;;8.73;;
27495;SDS011;14929;51.336;9.416;2023-02-15T14:26:57;12.10;;;9.35;;
27495;SDS011;14929;51.336;9.416;2023-02-15T14:29:43;12.25;;;8.88;;
27495;SDS011;14929;51.336;9.416;2023-02-15T14:32:18;13.80;;;9.23;;
27495;SDS011;14929;51.336;9.416;2023-02-15T14:34:53;11.18;;;8.48;;
27495;SDS011;14929;51.336;9.416;2023-02-15T14:37:25;11.95;;;9.82;;
27495;SDS011;14929;51.336;9.416;2023-02-15T14:40:12;13.73;;;10.45;;
27495;SDS011;14929;51.336;9.416;2023-02-15T14:43:07;19.13;;;10.60;;
27495;SDS011;14929;51.336;9.416;2023-02-15T14:45:43;15.55;;;11.27;;
27495;SDS011;14929;51.336;9.416;2023-02-15T14:48:19;14.95;;;10.00;;
27495;SDS011;14929;51.336;9.416;2023-02-15T14:50:52;15.68;;;10.82;;
27495;SDS011;14929;51.336;9.416;2023-02-15T14:53:25;15.40;;;10.43;;
27495;SDS011;14929;51.336;9.416;2023-02-15T14:56:18;13.88;;;9.85;;
27495;SDS011;14929;51.336;9.416;2023-02-15T14:58:59;13.23;;;9.70;;
27495;SDS011;14929;51.336;9.416;2023-02-15T15:01:50;13.70;;;9.13;;
27495;SDS011;14929;51.336;9.416;2023-02-15T15:04:25;11.25;;;9.43;;
27495;SDS011;14929;51.336;9.416;2023-02-15T15:06:58;14.05;;;10.23;;
27495;SDS011;14929;51.336;9.416;2023-02-15T15:09:35;13.90;;;11.18;;
27495;SDS011;14929;51.336;9.416;2023-02-15T15:12:18;12.82;;;9.48;;
27495;SDS011;14929;51.336;9.416;2023-02-15T15:15:05;14.88;;;10.20;;
27495;SDS011;14929;51.336;9.416;2023-02-15T15:17:56;13.07;;;10.23;;
27495;SDS011;14929;51.336;9.416;2023-02-15T15:20:42;12.23;;;9.25;;
27495;SDS011;14929;51.336;9.416;2023-02-15T15:26:21;13.20;;;9.30;;
27495;SDS011;14929;51.336;9.416;2023-02-15T15:28:56;9.38;;;7.82;;
27495;SDS011;14929;51.336;9.416;2023-02-15T15:31:27;9.57;;;7.57;;
27495;SDS011;14929;51.336;9.416;2023-02-15T15:37:10;12.05;;;8.60;;
27495;SDS011;14929;51.336;9.416;2023-02-15T15:43:30;10.00;;;8.10;;
27495;SDS011;14929;51.336;9.416;2023-02-15T15:46:33;9.00;;;6.88;;
27495;SDS011;14929;51.336;9.416;2023-02-15T15:49:54;8.60;;;6.93;;
27495;SDS011;14929;51.336;9.416;2023-02-15T15:52:22;10.10;;;7.47;;
27495;SDS011;14929;51.336;9.416;2023-02-15T15:54:51;8.68;;;6.20;;
27495;SDS011;14929;51.336;9.416;2023-02-15T15:57:22;7.47;;;6.22;;
27495;SDS011;14929;51.336;9.416;2023-02-15T15:59:54;6.90;;;6.20;;
27495;SDS011;14929;51.336;9.416;2023-02-15T16:02:25;9.60;;;7.82;;